createdAt,value
2018-08-16T00:00:29.434Z,93.01
2018-08-16T00:03:29.739Z,92.33
2018-08-16T00:04:29.468Z,92.43
2018-08-16T00:05:29.453Z,91.76
2018-08-16T00:06:29.447Z,91.96
2018-08-16T00:17:29.205Z,91.33
2018-08-16T00:18:29.191Z,90.95
2018-08-16T00:19:29.178Z,90.66
2018-08-16T00:20:29.280Z,91.42
2018-08-16T00:23:29.517Z,91.05
2018-08-16T00:24:29.132Z,91.05
2018-08-16T00:25:29.099Z,90.66
2018-08-16T00:26:29.087Z,90.66
2018-08-16T00:29:29.419Z,90.28
2018-08-16T00:30:29.819Z,90.56
2018-08-16T00:31:29.022Z,91.14
2018-08-16T00:32:29.009Z,91.24
2018-08-16T00:33:28.992Z,91.62
2018-08-16T00:34:28.999Z,91.24
2018-08-16T00:35:29.342Z,91.05
2018-08-16T00:36:28.977Z,91.24
2018-08-16T00:37:28.953Z,91.62
2018-08-16T00:41:29.243Z,91.91
2018-08-16T00:45:28.857Z,92.91
2018-08-16T00:46:28.934Z,92.82
2018-08-16T00:48:28.911Z,93.10
2018-08-16T00:49:28.856Z,93.20
2018-08-16T00:50:28.841Z,92.91
2018-08-16T00:51:28.973Z,93.20
2018-08-16T00:53:28.890Z,93.97
2018-08-16T00:54:29.016Z,93.77
2018-08-16T00:55:28.698Z,93.68
2018-08-16T00:56:28.791Z,93.20
2018-08-16T00:57:28.677Z,93.97
2018-08-16T00:58:28.658Z,93.68
2018-08-16T00:59:28.703Z,94.07
2018-08-16T01:00:28.812Z,93.87
2018-08-16T01:01:29.075Z,93.97
2018-08-16T01:02:28.621Z,94.26
2018-08-16T01:03:28.594Z,94.45
2018-08-16T01:04:28.579Z,93.97
2018-08-16T01:05:28.616Z,94.26
2018-08-16T01:06:28.553Z,94.54
2018-08-16T01:07:28.632Z,93.77
2018-08-16T01:08:28.850Z,94.74
2018-08-16T01:09:28.581Z,94.16
2018-08-16T01:11:28.558Z,94.45
2018-08-16T01:12:28.490Z,94.16
2018-08-16T01:13:28.491Z,94.45
2018-08-16T01:14:28.446Z,94.74
2018-08-16T01:15:28.731Z,94.45
2018-08-16T01:16:28.419Z,94.07
2018-08-16T01:18:28.462Z,93.87
2018-08-16T01:19:28.702Z,94.16
2018-08-16T01:21:28.667Z,93.77
2018-08-16T01:22:28.353Z,93.97
2018-08-16T01:24:28.361Z,94.35
2018-08-16T01:25:28.297Z,94.07
2018-08-16T01:26:28.584Z,93.87
2018-08-16T01:27:28.470Z,93.77
2018-08-16T01:28:28.558Z,94.07
2018-08-16T01:29:28.241Z,93.59
2018-08-16T01:30:28.292Z,93.68
2018-08-16T01:32:28.204Z,93.20
2018-08-16T01:33:28.223Z,93.01
2018-08-16T01:34:28.186Z,93.10
2018-08-16T01:35:28.562Z,92.77
2018-08-16T01:36:28.199Z,92.77
2018-08-16T01:37:28.137Z,92.63
2018-08-16T01:38:28.123Z,92.58
2018-08-16T01:40:28.201Z,92.58
2018-08-16T01:41:28.082Z,92.86
2018-08-16T01:42:28.416Z,92.68
2018-08-16T01:47:27.999Z,92.58
2018-08-16T01:48:28.035Z,92.58
2018-08-16T01:49:28.276Z,92.48
2018-08-16T01:50:27.960Z,92.58
2018-08-16T01:51:27.945Z,92.86
2018-08-16T01:52:27.932Z,92.19
2018-08-16T01:56:28.191Z,91.81
2018-08-16T01:58:27.948Z,91.42
2018-08-16T01:59:27.834Z,91.33
2018-08-16T02:00:27.874Z,91.81
2018-08-16T02:02:28.195Z,91.91
2018-08-16T02:04:27.883Z,91.62
2018-08-16T02:06:27.793Z,92.00
2018-08-16T02:07:27.873Z,91.52
2018-08-16T02:08:28.014Z,91.81
2018-08-16T02:09:27.701Z,91.81
2018-08-16T02:10:27.688Z,91.91
2018-08-16T02:11:27.670Z,91.91
2018-08-16T02:15:27.917Z,91.33
2018-08-16T02:18:27.652Z,91.24
2018-08-16T02:19:27.636Z,91.62
2018-08-16T02:20:27.622Z,91.05
2018-08-16T02:21:27.557Z,90.56
2018-08-16T02:22:27.840Z,90.75
2018-08-16T02:23:27.510Z,91.14
2018-08-16T02:24:27.542Z,90.71
2018-08-16T02:26:27.499Z,90.71
2018-08-16T02:27:27.467Z,90.61
2018-08-16T02:28:27.565Z,90.61
2018-08-16T02:29:27.726Z,91.05
2018-08-16T02:30:27.463Z,90.95
2018-08-16T02:32:27.382Z,90.66
2018-08-16T02:35:27.509Z,90.95
2018-08-16T02:36:27.680Z,90.85
2018-08-16T02:37:27.316Z,90.66
2018-08-16T02:38:27.304Z,91.19
2018-08-16T02:39:27.410Z,91.00
2018-08-16T02:46:27.295Z,90.33
2018-08-16T02:47:27.182Z,90.33
2018-08-16T02:48:27.264Z,90.42
2018-08-16T02:49:27.151Z,90.23
2018-08-16T02:50:27.386Z,90.04
2018-08-16T02:51:27.523Z,89.94
2018-08-16T02:52:27.110Z,89.56
2018-08-16T02:53:27.092Z,89.94
2018-08-16T02:54:27.088Z,89.56
2018-08-16T02:55:27.065Z,89.85
2018-08-16T02:56:27.205Z,89.85
2018-08-16T02:57:27.133Z,89.56
2018-08-16T02:58:27.324Z,89.94
2018-08-16T02:59:27.014Z,89.08
2018-08-16T03:03:27.023Z,89.18
2018-08-16T03:04:27.043Z,89.27
2018-08-16T03:06:27.309Z,89.18
2018-08-16T03:11:26.862Z,88.60
2018-08-16T03:12:27.147Z,88.12
2018-08-16T03:13:26.815Z,88.31
2018-08-16T03:14:26.878Z,88.41
2018-08-16T03:22:26.714Z,86.93
2018-08-16T03:23:26.675Z,87.21
2018-08-16T03:27:26.815Z,86.64
2018-08-16T03:28:26.628Z,86.35
2018-08-16T03:29:26.690Z,85.68
2018-08-16T03:30:26.577Z,86.16
2018-08-16T03:31:26.867Z,85.78
2018-08-16T03:33:26.691Z,85.58
2018-08-16T03:34:26.616Z,85.11
2018-08-16T03:42:26.425Z,84.68
2018-08-16T03:43:26.397Z,84.20
2018-08-16T03:44:26.686Z,84.58
2018-08-16T03:48:26.345Z,83.63
2018-08-16T03:50:26.611Z,83.72
2018-08-16T03:51:26.279Z,83.82
2018-08-16T03:52:26.348Z,83.82
2018-08-16T03:53:26.451Z,83.92
2018-08-16T03:54:26.313Z,83.82
2018-08-16T03:55:26.247Z,83.72
2018-08-16T03:56:26.216Z,83.63
2018-08-16T03:57:26.493Z,83.63
2018-08-16T03:59:26.245Z,83.15
2018-08-16T04:00:26.222Z,82.96
2018-08-16T04:01:26.139Z,82.86
2018-08-16T04:02:26.123Z,82.86
2018-08-16T04:05:26.356Z,83.05
2018-08-16T04:06:26.388Z,82.67
2018-08-16T04:07:26.219Z,83.15
2018-08-16T04:08:26.059Z,82.57
2018-08-16T04:09:26.043Z,82.38
2018-08-16T04:11:26.354Z,82.38
2018-08-16T04:12:25.982Z,82.48
2018-08-16T04:13:25.969Z,82.76
2018-08-16T04:14:25.976Z,82.76
2018-08-16T04:16:25.926Z,82.76
2018-08-16T04:17:25.958Z,82.57
2018-08-16T04:18:26.196Z,82.48
2018-08-16T04:20:25.890Z,81.71
2018-08-16T04:21:26.068Z,82.09
2018-08-16T04:22:25.934Z,82.29
2018-08-16T04:23:25.890Z,82.06
2018-08-16T04:24:25.810Z,82.38
2018-08-16T04:26:25.780Z,82.29
2018-08-16T04:27:25.775Z,82.29
2018-08-16T04:28:25.779Z,82.48
2018-08-16T04:29:25.786Z,82.38
2018-08-16T04:31:26.120Z,82.67
2018-08-16T04:32:25.855Z,82.57
2018-08-16T04:35:25.735Z,82.57
2018-08-16T04:37:25.906Z,82.86
2018-08-16T04:38:25.978Z,83.25
2018-08-16T04:39:25.712Z,82.96
2018-08-16T04:41:25.736Z,82.96
2018-08-16T04:43:25.567Z,83.25
2018-08-16T04:44:25.522Z,83.05
2018-08-16T04:45:25.804Z,82.86
2018-08-16T04:47:25.541Z,83.72
2018-08-16T04:48:25.484Z,83.72
2018-08-16T04:51:25.720Z,83.72
2018-08-16T04:52:25.406Z,84.01
2018-08-16T04:54:25.425Z,84.39
2018-08-16T04:55:25.362Z,84.97
2018-08-16T04:56:25.419Z,85.39
2018-08-16T04:57:25.647Z,85.97
2018-08-16T04:58:25.637Z,86.16
2018-08-16T05:00:25.339Z,86.16
2018-08-16T05:01:25.279Z,86.25
2018-08-16T05:05:25.534Z,86.83
2018-08-16T05:06:25.257Z,87.79
2018-08-16T05:12:25.471Z,89.56
2018-08-16T05:13:25.103Z,89.65
2018-08-16T05:14:25.092Z,89.94
2018-08-16T05:15:25.077Z,90.52
2018-08-16T05:16:25.063Z,90.52
2018-08-16T05:17:25.159Z,90.42
2018-08-16T05:18:25.083Z,91.09
2018-08-16T05:19:25.017Z,90.42
2018-08-16T05:20:25.106Z,90.33
2018-08-16T05:21:24.991Z,91.19
2018-08-16T05:22:25.030Z,91.00
2018-08-16T05:23:25.217Z,91.57
2018-08-16T05:24:25.363Z,91.72
2018-08-16T05:25:25.115Z,91.62
2018-08-16T05:29:24.884Z,92.77
2018-08-16T05:30:24.924Z,94.02
2018-08-16T05:31:25.153Z,92.29
2018-08-16T05:33:24.828Z,92.58
2018-08-16T05:34:24.811Z,92.86
2018-08-16T05:35:24.812Z,94.49
2018-08-16T05:36:24.833Z,94.69
2018-08-16T05:37:24.773Z,94.16
2018-08-16T05:38:25.120Z,93.87
2018-08-16T05:40:24.980Z,95.03
2018-08-16T05:41:24.793Z,94.35
2018-08-16T05:43:24.829Z,94.93
2018-08-16T05:44:25.228Z,95.70
2018-08-16T05:45:25.035Z,95.65
2018-08-16T05:47:24.674Z,96.37
2018-08-16T05:48:24.619Z,96.42
2018-08-16T05:49:24.663Z,96.80
2018-08-16T05:51:24.896Z,97.28
2018-08-16T05:52:24.565Z,97.47
2018-08-16T05:53:24.578Z,97.19
2018-08-16T05:54:24.550Z,97.66
2018-08-16T05:55:24.612Z,97.81
2018-08-16T05:56:24.527Z,97.38
2018-08-16T06:01:24.731Z,98.29
2018-08-16T06:02:24.436Z,98.29
2018-08-16T06:03:24.658Z,98.48
2018-08-16T06:04:24.599Z,98.29
2018-08-16T06:05:24.979Z,98.77
2018-08-16T06:06:24.574Z,98.96
2018-08-16T06:07:24.658Z,98.58
2018-08-16T06:08:24.595Z,99.54
2018-08-16T06:09:24.399Z,99.49
2018-08-16T06:10:24.334Z,99.99
2018-08-16T06:11:24.696Z,99.88
2018-08-16T06:12:24.536Z,99.99
2018-08-16T06:18:24.242Z,99.99
2018-08-16T06:19:24.266Z,99.99
2018-08-16T06:20:24.197Z,99.99
2018-08-16T06:21:24.181Z,99.99
2018-08-16T06:23:24.154Z,99.99
2018-08-16T06:24:24.144Z,99.99
2018-08-16T06:25:24.281Z,99.99
2018-08-16T06:26:24.319Z,99.99
2018-08-16T06:27:24.103Z,99.99
2018-08-16T06:28:24.107Z,99.99
2018-08-16T06:29:24.103Z,99.99
2018-08-16T06:30:24.162Z,99.99
2018-08-16T06:31:24.207Z,99.99
2018-08-16T06:32:24.210Z,99.99
2018-08-16T06:33:24.138Z,99.99
2018-08-16T06:34:24.169Z,99.99
2018-08-16T06:37:24.257Z,99.99
2018-08-16T06:38:23.974Z,99.99
2018-08-16T06:39:23.956Z,99.99
2018-08-16T06:40:23.940Z,99.99
2018-08-16T06:41:23.935Z,99.99
2018-08-16T06:43:23.954Z,99.99
2018-08-16T06:44:23.925Z,99.99
2018-08-16T06:45:24.191Z,99.99
2018-08-16T06:46:24.086Z,99.99
2018-08-16T06:47:23.874Z,99.99
2018-08-16T06:48:23.847Z,99.99
2018-08-16T06:49:23.874Z,99.99
2018-08-16T06:50:23.815Z,99.99
2018-08-16T06:51:23.905Z,99.99
2018-08-16T06:53:23.786Z,99.99
2018-08-16T06:54:24.065Z,99.99
2018-08-16T06:55:23.813Z,99.99
2018-08-16T06:56:23.746Z,99.99
2018-08-16T06:58:23.796Z,99.99
2018-08-16T06:59:23.725Z,99.99
2018-08-16T07:00:23.690Z,99.99
2018-08-16T07:07:23.956Z,99.99
2018-08-16T07:14:23.807Z,99.99
2018-08-16T07:15:23.538Z,99.99
2018-08-16T07:16:23.945Z,99.99
2018-08-16T07:17:23.704Z,99.99
2018-08-16T07:18:23.519Z,99.88
2018-08-16T07:19:24.397Z,99.99
2018-08-16T07:21:24.033Z,99.65
2018-08-16T07:22:23.873Z,99.99
2018-08-16T07:23:23.666Z,99.55
2018-08-16T07:24:25.154Z,99.16
2018-08-16T07:25:23.515Z,98.87
2018-08-16T07:26:23.384Z,98.68
2018-08-16T07:27:23.384Z,98.87
2018-08-16T07:28:23.363Z,99.99
2018-08-16T07:29:23.367Z,99.99
2018-08-16T07:31:23.646Z,98.05
2018-08-16T07:34:23.294Z,95.98
2018-08-16T07:35:23.282Z,94.38
2018-08-16T07:36:23.276Z,94.53
2018-08-16T07:37:23.615Z,94.62
2018-08-16T07:38:23.249Z,95.30
2018-08-16T07:39:23.258Z,93.18
2018-08-16T07:40:23.230Z,94.53
2018-08-16T07:41:23.260Z,93.03
2018-08-16T07:43:23.549Z,89.36
2018-08-16T07:44:23.194Z,89.36
2018-08-16T07:45:23.192Z,90.23
2018-08-16T07:46:23.223Z,89.79
2018-08-16T07:47:23.171Z,91.91
2018-08-16T07:48:23.145Z,88.82
2018-08-16T07:49:23.201Z,88.24
2018-08-16T07:50:23.423Z,88.39
2018-08-16T07:51:23.220Z,85.29
2018-08-16T07:52:23.103Z,89.54
2018-08-16T07:53:23.093Z,86.35
2018-08-16T07:55:23.420Z,83.26
2018-08-16T07:56:23.468Z,83.36
2018-08-16T07:57:23.081Z,81.23
2018-08-16T07:58:23.090Z,81.04
2018-08-16T07:59:23.033Z,82.72
2018-08-16T08:00:23.064Z,80.98
2018-08-16T08:01:23.070Z,80.98
2018-08-16T08:02:23.303Z,79.43
2018-08-16T08:03:22.990Z,77.88
2018-08-16T08:05:22.998Z,77.30
2018-08-16T08:07:23.014Z,76.46
2018-08-16T08:08:23.276Z,76.86
2018-08-16T08:09:23.014Z,76.46
2018-08-16T08:10:22.924Z,76.86
2018-08-16T08:11:22.917Z,80.28
2018-08-16T08:12:23.064Z,76.02
2018-08-16T08:13:22.941Z,74.96
2018-08-16T08:15:23.205Z,75.96
2018-08-16T08:16:22.871Z,73.35
2018-08-16T08:17:22.857Z,71.66
2018-08-16T08:18:22.853Z,71.89
2018-08-16T08:19:22.887Z,70.73
2018-08-16T08:20:22.848Z,70.21
2018-08-16T08:21:22.850Z,70.54
2018-08-16T08:23:22.827Z,72.31
2018-08-16T08:24:22.824Z,71.25
2018-08-16T08:25:23.017Z,70.09
2018-08-16T08:27:22.871Z,67.82
2018-08-16T08:28:23.034Z,67.92
2018-08-16T08:29:22.782Z,70.37
2018-08-16T08:30:22.738Z,68.40
2018-08-16T08:31:22.778Z,68.60
2018-08-16T08:32:23.020Z,68.21
2018-08-16T08:33:22.707Z,68.99
2018-08-16T08:34:22.717Z,68.30
2018-08-16T08:35:22.694Z,71.83
2018-08-16T08:36:22.701Z,70.47
2018-08-16T08:37:22.720Z,68.54
2018-08-16T08:38:22.669Z,67.85
2018-08-16T08:39:22.956Z,68.82
2018-08-16T08:40:22.700Z,67.66
2018-08-16T08:42:22.652Z,66.60
2018-08-16T08:43:22.745Z,66.40
2018-08-16T08:44:22.622Z,67.57
2018-08-16T08:47:22.622Z,66.02
2018-08-16T08:48:22.579Z,66.72
2018-08-16T08:49:22.720Z,66.99
2018-08-16T08:56:22.540Z,68.99
2018-08-16T08:57:22.568Z,66.37
2018-08-16T08:58:22.670Z,63.65
2018-08-16T08:59:22.875Z,64.14
2018-08-16T09:00:22.490Z,63.75
2018-08-16T09:01:22.553Z,63.56
2018-08-16T09:02:22.487Z,64.14
2018-08-16T09:03:22.575Z,63.75
2018-08-16T09:04:22.621Z,62.55
2018-08-16T09:07:22.502Z,64.82
2018-08-16T09:08:22.422Z,62.78
2018-08-16T09:10:22.749Z,64.30
2018-08-16T09:11:22.702Z,63.36
2018-08-16T09:12:22.397Z,63.26
2018-08-16T09:13:22.726Z,63.68
2018-08-16T09:15:22.538Z,61.22
2018-08-16T09:16:22.443Z,62.23
2018-08-16T09:17:22.663Z,61.52
2018-08-16T09:18:22.350Z,62.49
2018-08-16T09:19:22.388Z,61.04
2018-08-16T09:20:22.329Z,61.84
2018-08-16T09:21:22.327Z,60.77
2018-08-16T09:22:22.337Z,60.68
2018-08-16T09:24:22.356Z,59.15
2018-08-16T09:25:22.507Z,59.44
2018-08-16T09:26:22.403Z,60.02
2018-08-16T09:27:22.411Z,60.44
2018-08-16T09:28:22.694Z,58.40
2018-08-16T09:29:22.473Z,57.82
2018-08-16T09:30:22.265Z,56.72
2018-08-16T09:31:22.311Z,57.21
2018-08-16T09:32:22.248Z,57.89
2018-08-16T09:33:22.240Z,57.89
2018-08-16T09:37:22.287Z,58.25
2018-08-16T09:38:22.303Z,58.54
2018-08-16T09:39:22.279Z,58.67
2018-08-16T09:40:22.197Z,60.35
2018-08-16T09:41:22.489Z,58.59
2018-08-16T09:42:22.179Z,58.92
2018-08-16T09:43:22.317Z,60.11
2018-08-16T09:44:22.169Z,58.85
2018-08-16T09:45:22.279Z,57.87
2018-08-16T09:46:22.154Z,56.61
2018-08-16T09:47:22.200Z,57.10
2018-08-16T09:49:22.488Z,56.77
2018-08-16T09:50:22.134Z,56.68
2018-08-16T09:51:22.175Z,57.56
2018-08-16T09:52:22.118Z,57.17
2018-08-16T09:53:22.112Z,56.65
2018-08-16T09:54:22.106Z,56.77
2018-08-16T09:55:22.505Z,57.75
2018-08-16T09:56:22.155Z,57.33
2018-08-16T09:57:22.085Z,57.04
2018-08-16T09:59:22.161Z,56.65
2018-08-16T10:00:22.250Z,57.46
2018-08-16T10:01:22.475Z,56.95
2018-08-16T10:02:22.058Z,58.62
2018-08-16T10:03:22.067Z,59.53
2018-08-16T10:04:22.047Z,56.05
2018-08-16T10:05:22.043Z,55.54
2018-08-16T10:06:22.033Z,54.66
2018-08-16T10:07:22.421Z,55.44
2018-08-16T10:08:22.112Z,56.10
2018-08-16T10:09:22.017Z,56.87
2018-08-16T10:10:22.030Z,58.53
2018-08-16T10:11:22.008Z,55.64
2018-08-16T10:12:22.006Z,55.93
2018-08-16T10:15:21.988Z,53.62
2018-08-16T10:16:22.018Z,54.50
2018-08-16T10:19:22.333Z,55.32
2018-08-16T10:20:22.193Z,55.44
2018-08-16T10:21:21.965Z,54.47
2018-08-16T10:22:21.966Z,55.35
2018-08-16T10:23:22.163Z,55.93
2018-08-16T10:24:21.952Z,54.44
2018-08-16T10:25:22.292Z,55.83
2018-08-16T10:26:21.999Z,54.47
2018-08-16T10:27:21.935Z,56.32
2018-08-16T10:28:21.996Z,55.15
2018-08-16T10:29:21.930Z,55.15
2018-08-16T10:30:21.923Z,54.86
2018-08-16T10:32:21.981Z,55.37
2018-08-16T10:33:21.951Z,54.72
2018-08-16T10:34:21.906Z,53.75
2018-08-16T10:35:21.900Z,53.48
2018-08-16T10:36:21.901Z,53.26
2018-08-16T10:38:23.251Z,53.65
2018-08-16T10:39:21.898Z,54.62
2018-08-16T10:42:21.882Z,54.58
2018-08-16T10:43:21.878Z,52.40
2018-08-16T10:44:22.411Z,53.19
2018-08-16T10:45:21.899Z,53.48
2018-08-16T10:46:21.857Z,53.19
2018-08-16T10:47:21.880Z,53.38
2018-08-16T10:48:21.881Z,52.99
2018-08-16T10:49:21.986Z,54.75
2018-08-16T10:50:21.953Z,53.70
2018-08-16T10:51:22.140Z,52.24
2018-08-16T10:53:21.946Z,53.36
2018-08-16T10:54:21.860Z,53.36
2018-08-16T10:55:21.855Z,54.36
2018-08-16T10:56:21.883Z,51.99
2018-08-16T10:57:22.120Z,54.19
2018-08-16T10:58:21.817Z,53.24
2018-08-16T10:59:21.813Z,52.34
2018-08-16T11:00:21.814Z,54.09
2018-08-16T11:01:21.827Z,53.31
2018-08-16T11:02:21.851Z,52.66
2018-08-16T11:03:22.102Z,51.87
2018-08-16T11:04:21.838Z,51.80
2018-08-16T11:05:21.793Z,51.58
2018-08-16T11:06:21.787Z,51.95
2018-08-16T11:07:21.811Z,52.31
2018-08-16T11:08:21.837Z,52.24
2018-08-16T11:09:22.085Z,52.14
2018-08-16T11:10:21.805Z,51.95
2018-08-16T11:11:22.021Z,52.36
2018-08-16T11:12:21.858Z,52.26
2018-08-16T11:14:21.919Z,51.39
2018-08-16T11:15:21.912Z,51.07
2018-08-16T11:16:22.078Z,52.60
2018-08-16T11:17:21.758Z,52.80
2018-08-16T11:18:21.763Z,52.34
2018-08-16T11:19:21.751Z,51.85
2018-08-16T11:20:22.182Z,53.66
2018-08-16T11:21:22.124Z,50.29
2018-08-16T11:22:22.191Z,51.65
2018-08-16T11:24:23.036Z,52.38
2018-08-16T11:25:22.478Z,54.26
2018-08-16T11:27:21.773Z,51.78
2018-08-16T11:28:22.079Z,51.48
2018-08-16T11:29:21.778Z,51.41
2018-08-16T11:30:21.715Z,51.02
2018-08-16T11:31:23.960Z,51.19
2018-08-16T11:32:22.407Z,50.14
2018-08-16T11:33:21.778Z,50.60
2018-08-16T11:34:21.825Z,51.12
2018-08-16T11:35:22.015Z,50.31
2018-08-16T11:36:21.701Z,51.87
2018-08-16T11:37:21.761Z,49.95
2018-08-16T11:38:21.698Z,51.73
2018-08-16T11:39:21.746Z,51.12
2018-08-16T11:40:21.849Z,51.19
2018-08-16T11:41:21.983Z,50.21
2018-08-16T11:42:21.686Z,51.21
2018-08-16T11:43:21.677Z,50.31
2018-08-16T11:44:21.705Z,51.09
2018-08-16T11:45:21.741Z,49.85
2018-08-16T11:46:21.700Z,50.43
2018-08-16T11:47:21.669Z,50.95
2018-08-16T11:48:22.041Z,51.53
2018-08-16T11:49:22.364Z,49.80
2018-08-16T11:50:24.784Z,49.82
2018-08-16T11:51:23.696Z,49.63
2018-08-16T11:54:23.850Z,47.85
2018-08-16T11:55:21.688Z,48.68
2018-08-16T11:56:21.717Z,49.85
2018-08-16T11:57:21.694Z,50.07
2018-08-16T11:58:21.658Z,50.39
2018-08-16T11:59:21.642Z,49.02
2018-08-16T12:00:21.988Z,48.65
2018-08-16T12:03:21.734Z,47.73
2018-08-16T12:04:21.629Z,48.63
2018-08-16T12:05:21.659Z,49.36
2018-08-16T12:07:21.939Z,48.07
2018-08-16T12:08:21.642Z,48.26
2018-08-16T12:09:21.668Z,49.33
2018-08-16T12:10:21.612Z,48.73
2018-08-16T12:11:21.618Z,48.51
2018-08-16T12:12:21.613Z,49.27
2018-08-16T12:13:21.921Z,48.80
2018-08-16T12:15:21.765Z,47.27
2018-08-16T12:16:21.602Z,48.58
2018-08-16T12:17:21.605Z,49.05
2018-08-16T12:19:21.937Z,48.85
2018-08-16T12:20:21.596Z,48.78
2018-08-16T12:21:21.636Z,49.58
2018-08-16T12:22:21.591Z,48.83
2018-08-16T12:23:21.836Z,47.38
2018-08-16T12:24:21.689Z,47.48
2018-08-16T12:25:21.881Z,48.70
2018-08-16T12:26:21.656Z,46.23
2018-08-16T12:28:21.652Z,45.75
2018-08-16T12:29:21.596Z,47.82
2018-08-16T12:30:21.566Z,45.04
2018-08-16T12:31:21.677Z,47.09
2018-08-16T12:32:21.878Z,47.63
2018-08-16T12:34:21.584Z,45.72
2018-08-16T12:35:21.606Z,44.54
2018-08-16T12:36:21.620Z,44.05
2018-08-16T12:38:21.590Z,43.95
2018-08-16T12:39:21.968Z,45.10
2018-08-16T12:40:21.609Z,44.79
2018-08-16T12:43:21.589Z,46.11
2018-08-16T12:44:21.540Z,46.31
2018-08-16T12:45:21.948Z,45.21
2018-08-16T12:46:21.578Z,46.00
2018-08-16T12:47:21.581Z,45.70
2018-08-16T12:48:21.533Z,46.09
2018-08-16T12:49:21.541Z,46.60
2018-08-16T12:50:21.556Z,47.02
2018-08-16T12:51:21.599Z,46.28
2018-08-16T12:53:21.917Z,46.57
2018-08-16T12:54:21.621Z,45.83
2018-08-16T12:55:21.649Z,44.76
2018-08-16T12:56:21.594Z,44.29
2018-08-16T12:58:21.533Z,43.04
2018-08-16T12:59:21.812Z,43.04
2018-08-16T13:00:21.505Z,42.13
2018-08-16T13:01:21.508Z,44.07
2018-08-16T13:03:21.604Z,43.32
2018-08-16T13:05:21.799Z,45.36
2018-08-16T13:06:21.492Z,44.57
2018-08-16T13:07:21.492Z,46.57
2018-08-16T13:08:21.498Z,45.05
2018-08-16T13:09:21.795Z,43.32
2018-08-16T13:10:21.517Z,46.06
2018-08-16T13:11:21.803Z,45.10
2018-08-16T13:12:21.503Z,44.67
2018-08-16T13:13:21.698Z,45.37
2018-08-16T13:14:21.641Z,44.15
2018-08-16T13:15:21.744Z,44.66
2018-08-16T13:16:21.487Z,43.38
2018-08-16T13:17:21.488Z,44.88
2018-08-16T13:19:21.548Z,42.35
2018-08-16T13:20:21.513Z,42.76
2018-08-16T13:21:21.654Z,41.80
2018-08-16T13:23:21.555Z,41.62
2018-08-16T13:24:21.815Z,42.19
2018-08-16T13:25:21.498Z,43.34
2018-08-16T13:26:21.475Z,42.95
2018-08-16T13:27:21.626Z,43.34
2018-08-16T13:28:21.473Z,42.58
2018-08-16T13:29:21.483Z,42.95
2018-08-16T13:30:21.793Z,42.17
2018-08-16T13:31:21.621Z,42.64
2018-08-16T13:32:21.464Z,43.62
2018-08-16T13:33:21.508Z,43.42
2018-08-16T13:34:21.449Z,45.13
2018-08-16T13:35:21.451Z,44.37
2018-08-16T13:36:22.025Z,43.09
2018-08-16T13:37:21.501Z,42.11
2018-08-16T13:38:21.452Z,42.50
2018-08-16T13:39:21.500Z,41.82
2018-08-16T13:40:21.451Z,41.60
2018-08-16T13:41:21.564Z,43.77
2018-08-16T13:42:21.803Z,43.31
2018-08-16T13:43:21.440Z,42.21
2018-08-16T13:44:21.445Z,42.09
2018-08-16T13:45:21.493Z,42.78
2018-08-16T13:46:21.442Z,43.95
2018-08-16T13:47:21.450Z,44.07
2018-08-16T13:48:21.774Z,44.17
2018-08-16T13:49:21.456Z,42.80
2018-08-16T13:50:21.471Z,41.99
2018-08-16T13:51:21.503Z,43.76
2018-08-16T13:54:21.787Z,44.18
2018-08-16T13:55:21.433Z,45.18
2018-08-16T13:56:21.445Z,45.23
2018-08-16T13:57:21.491Z,42.78
2018-08-16T13:58:21.427Z,44.46
2018-08-16T14:00:21.832Z,42.58
2018-08-16T14:01:21.433Z,43.48
2018-08-16T14:03:21.493Z,42.66
2018-08-16T14:04:21.427Z,41.78
2018-08-16T14:05:21.500Z,42.44
2018-08-16T14:06:21.770Z,43.52
2018-08-16T14:07:21.426Z,43.03
2018-08-16T14:08:21.469Z,42.71
2018-08-16T14:09:21.490Z,42.81
2018-08-16T14:10:21.415Z,43.62
2018-08-16T14:11:21.426Z,44.32
2018-08-16T14:12:21.720Z,43.27
2018-08-16T14:13:21.745Z,42.66
2018-08-16T14:15:21.660Z,42.76
2018-08-16T14:16:21.412Z,43.63
2018-08-16T14:17:21.416Z,42.93
2018-08-16T14:18:21.824Z,43.93
2018-08-16T14:19:21.470Z,43.49
2018-08-16T14:23:21.413Z,44.56
2018-08-16T14:24:21.710Z,44.38
2018-08-16T14:25:21.475Z,41.86
2018-08-16T14:26:21.418Z,41.08
2018-08-16T14:27:21.462Z,41.08
2018-08-16T14:28:21.434Z,40.94
2018-08-16T14:29:21.413Z,41.72
2018-08-16T14:30:21.477Z,42.91
2018-08-16T14:32:21.819Z,43.45
2018-08-16T14:33:21.460Z,42.47
2018-08-16T14:40:21.404Z,40.94
2018-08-16T14:41:21.409Z,41.21
2018-08-16T14:42:21.408Z,42.11
2018-08-16T14:43:21.409Z,41.13
2018-08-16T14:44:21.708Z,41.21
2018-08-16T14:45:21.462Z,41.60
2018-08-16T14:46:21.412Z,42.52
2018-08-16T14:47:21.414Z,43.62
2018-08-16T14:50:21.414Z,41.13
2018-08-16T14:52:21.518Z,40.55
2018-08-16T14:53:21.456Z,41.41
2018-08-16T14:55:21.432Z,41.62
2018-08-16T14:56:21.572Z,42.33
2018-08-16T14:57:22.528Z,41.74
2018-08-16T14:58:21.448Z,40.63
2018-08-16T15:01:21.508Z,43.44
2018-08-16T15:02:21.429Z,43.32
2018-08-16T15:04:24.623Z,43.62
2018-08-16T15:05:21.433Z,42.91
2018-08-16T15:06:21.409Z,46.57
2018-08-16T15:07:21.409Z,43.34
2018-08-16T15:08:22.609Z,42.76
2018-08-16T15:09:21.809Z,43.03
2018-08-16T15:10:21.527Z,42.54
2018-08-16T15:11:21.486Z,43.44
2018-08-16T15:12:21.428Z,42.68
2018-08-16T15:13:21.417Z,42.78
2018-08-16T15:14:21.425Z,42.09
2018-08-16T15:15:21.777Z,42.27
2018-08-16T15:17:21.448Z,42.25
2018-08-16T15:18:21.403Z,43.32
2018-08-16T15:19:21.582Z,42.05
2018-08-16T15:20:23.265Z,42.15
2018-08-16T15:22:21.422Z,42.74
2018-08-16T15:23:21.403Z,43.42
2018-08-16T15:24:21.413Z,43.52
2018-08-16T15:25:21.429Z,43.44
2018-08-16T15:27:21.701Z,41.54
2018-08-16T15:28:21.404Z,42.61
2018-08-16T15:29:21.410Z,43.91
2018-08-16T15:30:21.570Z,42.56
2018-08-16T15:31:21.692Z,42.42
2018-08-16T15:32:21.553Z,44.09
2018-08-16T15:33:21.696Z,43.28
2018-08-16T15:34:21.506Z,44.18
2018-08-16T15:35:21.400Z,43.03
2018-08-16T15:36:21.393Z,42.03
2018-08-16T15:37:21.468Z,42.21
2018-08-16T15:38:21.491Z,43.28
2018-08-16T15:39:22.144Z,43.20
2018-08-16T15:40:21.394Z,43.30
2018-08-16T15:41:21.442Z,43.89
2018-08-16T15:42:21.419Z,43.91
2018-08-16T15:43:21.452Z,43.32
2018-08-16T15:44:21.448Z,42.83
2018-08-16T15:45:21.700Z,43.62
2018-08-16T15:46:21.463Z,42.52
2018-08-16T15:47:21.452Z,44.96
2018-08-16T15:48:21.424Z,43.20
2018-08-16T15:49:21.630Z,43.23
2018-08-16T15:50:21.436Z,43.30
2018-08-16T15:51:21.692Z,43.10
2018-08-16T15:52:21.380Z,42.81
2018-08-16T15:53:21.423Z,43.18
2018-08-16T15:54:21.384Z,44.24
2018-08-16T15:55:21.385Z,45.31
2018-08-16T15:56:21.555Z,44.90
2018-08-16T15:57:21.710Z,44.21
2018-08-16T15:58:21.383Z,45.39
2018-08-16T15:59:21.421Z,45.29
2018-08-16T16:00:21.394Z,44.90
2018-08-16T16:02:21.453Z,45.29
2018-08-16T16:03:21.789Z,45.80
2018-08-16T16:04:21.404Z,46.09
2018-08-16T16:05:21.380Z,45.72
2018-08-16T16:06:21.399Z,45.41
2018-08-16T16:07:21.384Z,46.48
2018-08-16T16:08:21.412Z,44.70
2018-08-16T16:09:21.441Z,45.68
2018-08-16T16:10:21.677Z,45.87
2018-08-16T16:11:21.366Z,45.58
2018-08-16T16:12:21.392Z,46.63
2018-08-16T16:13:21.573Z,46.26
2018-08-16T16:14:21.389Z,46.97
2018-08-16T16:15:21.545Z,46.58
2018-08-16T16:16:21.666Z,45.41
2018-08-16T16:17:21.380Z,46.00
2018-08-16T16:18:21.335Z,45.80
2018-08-16T16:20:21.524Z,46.53
2018-08-16T16:21:23.720Z,47.02
2018-08-16T16:22:21.623Z,47.29
2018-08-16T16:23:21.521Z,47.68
2018-08-16T16:24:21.398Z,48.63
2018-08-16T16:25:21.399Z,48.73
2018-08-16T16:28:21.781Z,49.24
2018-08-16T16:31:21.321Z,48.36
2018-08-16T16:32:21.354Z,48.78
2018-08-16T16:35:21.348Z,49.24
2018-08-16T16:36:21.287Z,48.88
2018-08-16T16:37:21.277Z,47.90
2018-08-16T16:38:21.462Z,47.71
2018-08-16T16:39:21.278Z,48.75
2018-08-16T16:40:21.270Z,48.88
2018-08-16T16:41:21.565Z,47.90
2018-08-16T16:42:21.271Z,48.10
2018-08-16T16:43:21.262Z,49.24
2018-08-16T16:45:21.255Z,48.75
2018-08-16T16:46:21.275Z,49.22
2018-08-16T16:47:21.569Z,48.93
2018-08-16T16:48:21.247Z,52.34
2018-08-16T16:49:21.259Z,50.09
2018-08-16T16:50:21.412Z,49.51
2018-08-16T16:51:21.231Z,50.87
2018-08-16T16:52:21.228Z,51.75
2018-08-16T16:53:21.523Z,51.07